createdAt,value
2023-05-09T00:00:30.050Z,38.21
2023-05-09T00:01:09.439Z,37.99
2023-05-09T00:01:42.333Z,38.05
2023-05-09T00:02:14.568Z,38.14
2023-05-09T00:02:49.709Z,38.15
2023-05-09T00:03:21.972Z,38.00
2023-05-09T00:03:54.138Z,38.15
2023-05-09T00:04:29.504Z,38.48
2023-05-09T00:05:03.683Z,38.20
2023-05-09T00:05:35.856Z,38.35
2023-05-09T00:06:15.646Z,38.27
2023-05-09T00:06:47.800Z,38.38
2023-05-09T00:07:19.956Z,38.20
2023-05-09T00:07:54.728Z,37.78
2023-05-09T00:08:26.945Z,37.75
2023-05-09T00:08:59.249Z,38.29
2023-05-09T00:09:34.019Z,37.81
2023-05-09T00:10:07.422Z,37.81
2023-05-09T00:10:39.694Z,37.82
2023-05-09T00:11:14.386Z,37.81
2023-05-09T00:11:46.628Z,37.94
2023-05-09T00:12:18.769Z,38.04
2023-05-09T00:12:53.577Z,37.83
2023-05-09T00:13:26.251Z,38.10
2023-05-09T00:13:58.764Z,38.33
2023-05-09T00:14:33.730Z,38.08
2023-05-09T00:15:08.519Z,37.97
2023-05-09T00:15:40.669Z,38.28
2023-05-09T00:16:16.316Z,38.03
2023-05-09T00:16:48.595Z,38.13
2023-05-09T00:17:22.952Z,37.98
2023-05-09T00:17:57.777Z,37.85
2023-05-09T00:18:31.367Z,38.16
2023-05-09T00:19:03.698Z,38.23
2023-05-09T00:19:38.466Z,38.24
2023-05-09T00:20:12.651Z,38.19
2023-05-09T00:20:44.821Z,38.39
2023-05-09T00:21:19.639Z,38.37
2023-05-09T00:21:54.397Z,38.44
2023-05-09T00:22:26.688Z,38.35
2023-05-09T00:22:58.919Z,38.60
2023-05-09T00:23:33.646Z,38.52
2023-05-09T00:24:06.816Z,38.44
2023-05-09T00:24:39.078Z,38.68
2023-05-09T00:25:14.895Z,38.92
2023-05-09T00:25:47.516Z,38.89
2023-05-09T00:26:19.760Z,38.95
2023-05-09T00:26:55.187Z,38.71
2023-05-09T00:27:30.764Z,38.74
2023-05-09T00:28:02.928Z,38.36
2023-05-09T00:28:37.689Z,38.53
2023-05-09T00:29:09.838Z,38.71
2023-05-09T00:29:42.055Z,38.66
2023-05-09T00:30:16.986Z,38.52
2023-05-09T00:30:49.169Z,38.63
2023-05-09T00:31:21.791Z,38.67
2023-05-09T00:31:56.551Z,38.64
2023-05-09T00:32:29.397Z,38.78
2023-05-09T00:33:01.754Z,38.75
2023-05-09T00:33:36.571Z,38.85
2023-05-09T00:34:08.815Z,38.83
2023-05-09T00:34:41.344Z,38.77
2023-05-09T00:35:16.432Z,38.93
2023-05-09T00:35:48.843Z,38.87
2023-05-09T00:36:23.938Z,39.19
2023-05-09T00:36:56.312Z,39.07
2023-05-09T00:37:32.259Z,39.08
2023-05-09T00:38:04.487Z,38.82
2023-05-09T00:38:37.122Z,38.64
2023-05-09T00:39:12.722Z,38.54
2023-05-09T00:39:45.008Z,38.38
2023-05-09T00:40:17.244Z,38.58
2023-05-09T00:40:52.139Z,38.49
2023-05-09T00:41:24.264Z,38.69
2023-05-09T00:41:56.662Z,38.44
2023-05-09T00:42:28.917Z,38.78
2023-05-09T00:43:03.623Z,38.49
2023-05-09T00:43:35.907Z,38.47
2023-05-09T00:44:08.030Z,38.60
2023-05-09T00:44:40.291Z,38.31
2023-05-09T00:45:15.307Z,38.57
2023-05-09T00:45:48.479Z,38.38
2023-05-09T00:46:21.379Z,38.65
2023-05-09T00:46:56.246Z,38.94
2023-05-09T00:47:29.180Z,38.96
2023-05-09T00:48:01.564Z,38.94
2023-05-09T00:48:36.469Z,38.71
2023-05-09T00:49:08.723Z,38.64
2023-05-09T00:49:40.964Z,38.70
2023-05-09T00:50:16.386Z,38.87
2023-05-09T00:50:53.056Z,38.62
2023-05-09T00:51:29.456Z,38.79
2023-05-09T00:52:05.652Z,38.84
2023-05-09T00:52:38.916Z,38.94
2023-05-09T00:53:11.846Z,38.45
2023-05-09T00:53:47.304Z,38.16
2023-05-09T00:54:19.462Z,38.35
2023-05-09T00:54:52.073Z,38.32
2023-05-09T00:55:27.054Z,38.15
2023-05-09T00:56:00.744Z,38.07
2023-05-09T00:56:33.041Z,38.51
2023-05-09T00:57:07.820Z,38.31
2023-05-09T00:57:40.321Z,38.26
2023-05-09T00:58:13.126Z,38.38
2023-05-09T00:58:48.369Z,37.83
2023-05-09T00:59:21.136Z,37.93
2023-05-09T00:59:53.435Z,38.01
2023-05-09T01:00:28.561Z,38.27
2023-05-09T01:01:02.550Z,38.12
2023-05-09T01:01:34.890Z,38.12
2023-05-09T01:02:09.796Z,38.06
2023-05-09T01:02:42.827Z,38.15
2023-05-09T01:03:15.624Z,38.13
2023-05-09T01:03:50.821Z,37.90
2023-05-09T01:04:23.294Z,38.13
2023-05-09T01:04:56.215Z,37.89
2023-05-09T01:05:39.887Z,38.29
2023-05-09T01:06:21.165Z,38.04
2023-05-09T01:07:06.323Z,38.36
2023-05-09T01:07:46.496Z,38.66
2023-05-09T01:08:30.653Z,38.45
2023-05-09T01:09:10.768Z,38.34
2023-05-09T01:09:46.882Z,38.11
2023-05-09T01:10:29.880Z,38.15
2023-05-09T01:11:12.582Z,38.60
2023-05-09T01:11:50.724Z,38.08
2023-05-09T01:12:28.424Z,38.34
2023-05-09T01:13:08.835Z,38.35
2023-05-09T01:13:44.737Z,38.28
2023-05-09T01:14:30.323Z,38.62
2023-05-09T01:15:11.512Z,38.46
2023-05-09T01:15:51.560Z,38.42
2023-05-09T01:16:29.617Z,38.66
2023-05-09T01:17:13.771Z,38.65
2023-05-09T01:17:53.090Z,38.49
2023-05-09T01:18:31.326Z,38.75
2023-05-09T01:19:25.376Z,38.41
2023-05-09T01:20:05.792Z,38.85
2023-05-09T01:20:45.798Z,38.81
2023-05-09T01:21:24.440Z,38.96
2023-05-09T01:22:02.337Z,38.89
2023-05-09T01:22:39.235Z,39.14
2023-05-09T01:23:56.832Z,38.81
2023-05-09T01:24:52.239Z,39.40
2023-05-09T01:25:38.361Z,39.07
2023-05-09T01:26:21.918Z,39.40
2023-05-09T01:27:16.411Z,39.23
2023-05-09T01:27:57.861Z,39.39
2023-05-09T01:28:45.123Z,39.42
2023-05-09T01:29:36.668Z,39.12
2023-05-09T01:30:12.159Z,39.31
2023-05-09T01:30:49.689Z,39.03
2023-05-09T01:31:23.039Z,39.23
2023-05-09T01:31:57.331Z,39.20
2023-05-09T01:32:35.045Z,39.39
2023-05-09T01:33:08.341Z,39.02
2023-05-09T01:33:46.150Z,39.33
2023-05-09T01:34:23.468Z,39.08
2023-05-09T01:34:59.506Z,39.01
2023-05-09T01:35:33.596Z,39.36
2023-05-09T01:36:14.799Z,39.22
2023-05-09T01:36:50.391Z,39.19
2023-05-09T01:37:29.012Z,39.28
2023-05-09T01:38:06.903Z,39.49
2023-05-09T01:38:41.532Z,39.45
2023-05-09T01:39:14.538Z,39.22
2023-05-09T01:39:52.679Z,39.50
2023-05-09T01:40:30.099Z,39.44
2023-05-09T01:41:06.215Z,39.42
2023-05-09T01:41:39.042Z,39.33
2023-05-09T01:42:13.010Z,39.22
2023-05-09T01:42:50.157Z,39.10
2023-05-09T01:43:28.407Z,39.54
2023-05-09T01:44:03.814Z,39.31
2023-05-09T01:44:41.309Z,39.29
2023-05-09T01:45:18.290Z,39.33
2023-05-09T01:45:53.205Z,39.62
2023-05-09T01:46:27.502Z,39.24
2023-05-09T01:47:03.401Z,39.35
2023-05-09T01:47:37.676Z,39.09
2023-05-09T01:48:11.323Z,39.17
2023-05-09T01:48:47.850Z,38.61
2023-05-09T01:49:20.904Z,39.11
2023-05-09T01:49:54.339Z,39.21
2023-05-09T01:50:32.386Z,39.21
2023-05-09T01:51:05.830Z,39.35
2023-05-09T01:51:40.779Z,39.30
2023-05-09T01:52:17.490Z,39.17
2023-05-09T01:52:55.560Z,39.06
2023-05-09T01:53:29.665Z,39.22
2023-05-09T01:54:02.779Z,39.35
2023-05-09T01:54:38.924Z,39.32
2023-05-09T01:55:12.585Z,39.04
2023-05-09T01:55:46.595Z,39.00
2023-05-09T01:56:22.288Z,39.12
2023-05-09T01:56:55.950Z,39.03
2023-05-09T01:57:29.667Z,39.12
2023-05-09T01:58:04.263Z,38.89
2023-05-09T01:58:41.555Z,39.05
2023-05-09T01:59:16.450Z,39.30
2023-05-09T01:59:52.834Z,39.17
2023-05-09T02:00:28.408Z,39.20
2023-05-09T02:01:01.800Z,39.05
2023-05-09T02:01:35.351Z,39.14
2023-05-09T02:02:11.015Z,39.21
2023-05-09T02:02:44.217Z,39.30
2023-05-09T02:03:16.729Z,39.31
2023-05-09T02:03:53.884Z,39.04
2023-05-09T02:04:28.704Z,39.31
2023-05-09T02:05:01.902Z,39.23
2023-05-09T02:05:37.684Z,39.31
2023-05-09T02:06:11.259Z,39.23
2023-05-09T02:06:44.863Z,39.21
2023-05-09T02:07:20.380Z,38.87
2023-05-09T02:07:54.978Z,39.09
2023-05-09T02:08:27.884Z,39.22
2023-05-09T02:09:03.673Z,38.87
2023-05-09T02:09:36.158Z,39.14
2023-05-09T02:10:10.024Z,39.28
2023-05-09T02:10:46.477Z,39.14
2023-05-09T02:11:18.851Z,39.37
2023-05-09T02:11:51.208Z,39.55
2023-05-09T02:12:26.856Z,39.57
2023-05-09T02:12:59.074Z,39.57
2023-05-09T02:13:31.534Z,39.16
2023-05-09T02:14:03.735Z,39.13
2023-05-09T02:14:38.574Z,39.45
2023-05-09T02:15:13.707Z,39.34
2023-05-09T02:15:48.093Z,39.26
2023-05-09T02:16:25.411Z,39.32
2023-05-09T02:16:57.824Z,39.04
2023-05-09T02:17:31.060Z,39.37
2023-05-09T02:18:06.025Z,39.46
2023-05-09T02:18:39.798Z,39.55
2023-05-09T02:19:11.996Z,39.25
2023-05-09T02:19:47.050Z,39.37
2023-05-09T02:20:20.383Z,39.58
2023-05-09T02:20:52.749Z,39.33
2023-05-09T02:21:29.202Z,39.55
2023-05-09T02:22:02.292Z,39.73
2023-05-09T02:22:34.454Z,39.68
2023-05-09T02:23:09.439Z,39.59
2023-05-09T02:23:41.723Z,39.47
2023-05-09T02:24:14.376Z,39.26
2023-05-09T02:24:49.241Z,39.33
2023-05-09T02:25:23.490Z,39.60
2023-05-09T02:25:56.262Z,39.59
2023-05-09T02:26:32.044Z,39.53
2023-05-09T02:27:05.497Z,39.56
2023-05-09T02:27:39.413Z,39.93
2023-05-09T02:28:14.839Z,39.54
2023-05-09T02:28:47.865Z,39.62
2023-05-09T02:29:28.608Z,39.82
2023-05-09T02:30:07.670Z,39.58
2023-05-09T02:30:44.613Z,39.92
2023-05-09T02:31:20.530Z,40.04
2023-05-09T02:31:56.188Z,39.87
2023-05-09T02:32:31.784Z,39.97
2023-05-09T02:33:06.799Z,39.91
2023-05-09T02:33:42.567Z,39.81
2023-05-09T02:34:15.497Z,39.68
2023-05-09T02:34:49.261Z,39.62
2023-05-09T02:35:25.618Z,39.94
2023-05-09T02:35:58.290Z,39.99
2023-05-09T02:36:31.800Z,40.17
2023-05-09T02:37:06.668Z,39.82
2023-05-09T02:37:42.901Z,39.89
2023-05-09T02:38:16.028Z,40.04
2023-05-09T02:38:50.916Z,39.88
2023-05-09T02:39:23.155Z,40.20
2023-05-09T02:39:55.973Z,40.18
2023-05-09T02:40:32.387Z,40.07
2023-05-09T02:41:04.676Z,39.81
2023-05-09T02:41:36.986Z,40.17
2023-05-09T02:42:13.214Z,40.19
2023-05-09T02:42:45.561Z,40.20
2023-05-09T02:43:17.699Z,39.97
2023-05-09T02:43:52.421Z,40.30
2023-05-09T02:44:24.621Z,40.05
2023-05-09T02:44:56.900Z,40.23
2023-05-09T02:45:29.180Z,40.19
2023-05-09T02:46:06.770Z,40.05
2023-05-09T02:46:39.098Z,40.09
2023-05-09T02:47:11.458Z,40.28
2023-05-09T02:47:46.381Z,40.40
2023-05-09T02:48:18.716Z,40.18
2023-05-09T02:48:51.619Z,40.34
2023-05-09T02:49:32.144Z,40.54
2023-05-09T02:50:09.552Z,40.37
2023-05-09T02:50:43.641Z,40.19
2023-05-09T02:51:16.033Z,40.20
2023-05-09T02:51:50.794Z,40.19
2023-05-09T02:52:23.096Z,40.38
2023-05-09T02:52:55.258Z,40.31
2023-05-09T02:53:30.045Z,40.25
2023-05-09T02:54:02.334Z,40.32
2023-05-09T02:54:34.713Z,40.47
2023-05-09T02:55:11.110Z,40.64
2023-05-09T02:55:45.682Z,40.07
2023-05-09T02:56:20.990Z,40.57
2023-05-09T02:56:53.228Z,40.39
2023-05-09T02:57:25.420Z,40.22
2023-05-09T02:58:12.065Z,40.31
2023-05-09T02:58:51.546Z,40.13
2023-05-09T02:59:24.127Z,39.84
2023-05-09T02:59:56.746Z,40.23
2023-05-09T03:00:31.631Z,40.21
2023-05-09T03:01:06.472Z,40.35
2023-05-09T03:01:38.750Z,40.15
2023-05-09T03:02:13.770Z,40.07
2023-05-09T03:02:47.379Z,40.00
2023-05-09T03:03:23.635Z,39.99
2023-05-09T03:03:59.090Z,40.23
2023-05-09T03:04:31.332Z,40.15
2023-05-09T03:05:04.026Z,40.29
2023-05-09T03:05:38.836Z,40.43
2023-05-09T03:06:11.112Z,39.92
2023-05-09T03:06:43.285Z,40.46
2023-05-09T03:07:18.206Z,40.53
2023-05-09T03:07:51.560Z,40.11
2023-05-09T03:08:23.739Z,39.93
2023-05-09T03:08:58.466Z,40.10
2023-05-09T03:09:31.159Z,39.97
2023-05-09T03:10:03.869Z,40.16
2023-05-09T03:10:39.618Z,40.17
2023-05-09T03:11:11.808Z,40.19
2023-05-09T03:11:44.488Z,40.04
2023-05-09T03:12:16.683Z,40.17
2023-05-09T03:12:51.450Z,40.32
2023-05-09T03:13:24.349Z,40.20
2023-05-09T03:13:56.578Z,40.13
2023-05-09T03:14:31.612Z,39.92
2023-05-09T03:15:04.837Z,39.78
2023-05-09T03:15:37.048Z,39.81
2023-05-09T03:16:17.706Z,40.05
2023-05-09T03:16:50.766Z,39.66
2023-05-09T03:17:30.824Z,39.94
2023-05-09T03:18:05.825Z,40.07
2023-05-09T03:18:38.030Z,39.85
2023-05-09T03:19:10.737Z,39.80
2023-05-09T03:19:42.916Z,40.07
2023-05-09T03:20:18.386Z,39.60
2023-05-09T03:20:50.570Z,39.65
2023-05-09T03:21:22.803Z,39.59
2023-05-09T03:21:58.119Z,39.84
2023-05-09T03:22:30.899Z,39.66
2023-05-09T03:23:07.284Z,39.83
2023-05-09T03:23:42.309Z,40.12
2023-05-09T03:24:14.567Z,40.11
2023-05-09T03:24:46.817Z,39.88
2023-05-09T03:25:22.495Z,39.99
2023-05-09T03:25:54.773Z,40.11
2023-05-09T03:26:26.927Z,40.23
2023-05-09T03:27:02.760Z,40.15
2023-05-09T03:27:34.992Z,40.46
2023-05-09T03:28:08.345Z,40.30
2023-05-09T03:28:43.469Z,40.51
2023-05-09T03:29:15.708Z,40.19
2023-05-09T03:29:47.855Z,40.36
2023-05-09T03:30:23.826Z,40.34
2023-05-09T03:30:56.898Z,40.61
2023-05-09T03:31:36.294Z,40.63
2023-05-09T03:32:12.053Z,40.70
2023-05-09T03:32:45.545Z,40.55
2023-05-09T03:33:17.923Z,40.34
2023-05-09T03:33:52.720Z,40.65
2023-05-09T03:34:25.205Z,40.54
2023-05-09T03:34:57.566Z,40.74
2023-05-09T03:35:33.311Z,40.71
2023-05-09T03:36:08.906Z,40.80
2023-05-09T03:36:42.593Z,40.80
2023-05-09T03:37:17.081Z,41.11
2023-05-09T03:37:52.184Z,40.68
2023-05-09T03:38:24.643Z,40.69
2023-05-09T03:38:57.054Z,40.88
2023-05-09T03:39:32.034Z,40.92
2023-05-09T03:40:06.248Z,40.63
2023-05-09T03:40:44.241Z,40.68
2023-05-09T03:41:20.765Z,40.70
2023-05-09T03:41:53.796Z,40.64
2023-05-09T03:42:26.039Z,40.68
2023-05-09T03:43:04.607Z,40.35
2023-05-09T03:43:37.463Z,40.68
2023-05-09T03:44:09.584Z,40.07
2023-05-09T03:44:44.367Z,40.57
2023-05-09T03:45:16.810Z,40.38
2023-05-09T03:45:50.832Z,40.58
2023-05-09T03:46:25.778Z,40.29
2023-05-09T03:47:00.784Z,40.24
2023-05-09T03:47:37.695Z,40.62
2023-05-09T03:48:12.902Z,40.57
2023-05-09T03:48:50.766Z,40.83
2023-05-09T03:49:23.211Z,40.71
2023-05-09T03:50:00.849Z,40.89
2023-05-09T03:50:33.285Z,40.62
2023-05-09T03:51:05.801Z,40.41
2023-05-09T03:51:44.771Z,40.68
2023-05-09T03:52:20.579Z,40.80
2023-05-09T03:52:55.408Z,40.44
2023-05-09T03:53:30.213Z,40.77
2023-05-09T03:54:02.625Z,41.15
2023-05-09T03:54:35.154Z,41.14
2023-05-09T03:55:12.281Z,41.01
2023-05-09T03:55:44.599Z,40.91
2023-05-09T03:56:18.801Z,40.99
2023-05-09T03:56:58.009Z,40.83
2023-05-09T03:57:30.157Z,40.89
2023-05-09T03:58:03.478Z,40.93
2023-05-09T03:58:39.764Z,40.90
2023-05-09T03:59:11.928Z,40.88
2023-05-09T03:59:44.278Z,40.68
2023-05-09T04:00:22.079Z,40.74
2023-05-09T04:01:04.730Z,40.58
2023-05-09T04:01:40.307Z,40.89
2023-05-09T04:02:16.167Z,40.83
2023-05-09T04:02:50.318Z,40.91
2023-05-09T04:03:34.434Z,40.51
2023-05-09T04:04:07.890Z,40.49
2023-05-09T04:04:41.297Z,40.60
2023-05-09T04:05:16.903Z,40.91
2023-05-09T04:05:49.497Z,41.20
2023-05-09T04:06:31.561Z,41.13
2023-05-09T04:07:06.971Z,41.11
2023-05-09T04:07:39.196Z,41.08
2023-05-09T04:08:11.641Z,40.54
2023-05-09T04:08:46.517Z,40.66
2023-05-09T04:09:18.842Z,40.44
2023-05-09T04:09:52.609Z,40.52
2023-05-09T04:10:28.257Z,40.53
2023-05-09T04:11:00.751Z,40.84
2023-05-09T04:11:32.969Z,40.58
2023-05-09T04:12:09.253Z,40.83
2023-05-09T04:12:41.486Z,40.38
2023-05-09T04:13:13.775Z,40.77
2023-05-09T04:13:49.354Z,40.93
2023-05-09T04:14:37.025Z,40.98
2023-05-09T04:15:11.253Z,40.71
2023-05-09T04:15:46.278Z,41.11
2023-05-09T04:16:18.582Z,41.05
2023-05-09T04:16:50.880Z,40.86
2023-05-09T04:17:28.341Z,40.59
2023-05-09T04:18:00.630Z,40.76
2023-05-09T04:18:32.934Z,40.91
2023-05-09T04:19:08.205Z,40.76
2023-05-09T04:19:41.166Z,40.71
2023-05-09T04:20:13.694Z,40.67
2023-05-09T04:20:50.746Z,40.65
2023-05-09T04:21:22.928Z,40.84
2023-05-09T04:21:58.893Z,41.07
2023-05-09T04:22:33.629Z,41.34
2023-05-09T04:23:06.248Z,41.17
2023-05-09T04:23:39.116Z,41.53
2023-05-09T04:24:14.514Z,41.31
2023-05-09T04:24:49.064Z,41.17
2023-05-09T04:25:21.386Z,41.20
2023-05-09T04:25:57.113Z,41.48
2023-05-09T04:26:31.426Z,41.30
2023-05-09T04:27:04.953Z,41.54
2023-05-09T04:27:39.850Z,41.55
2023-05-09T04:28:12.157Z,41.43
2023-05-09T04:28:44.697Z,41.51
2023-05-09T04:29:21.348Z,41.65
2023-05-09T04:29:58.150Z,41.32
2023-05-09T04:30:30.905Z,41.26
2023-05-09T04:31:06.794Z,41.20
2023-05-09T04:31:39.725Z,41.52
2023-05-09T04:32:13.842Z,41.66
2023-05-09T04:32:51.479Z,41.53
2023-05-09T04:33:24.639Z,41.29
2023-05-09T04:33:58.556Z,41.63
2023-05-09T04:34:34.558Z,41.21
2023-05-09T04:35:13.320Z,41.11
2023-05-09T04:35:48.953Z,41.08
2023-05-09T04:36:24.166Z,41.28
2023-05-09T04:36:56.355Z,41.35
2023-05-09T04:37:28.921Z,41.37
2023-05-09T04:38:05.031Z,41.45
2023-05-09T04:38:37.225Z,41.49
2023-05-09T04:39:13.143Z,41.81
2023-05-09T04:39:55.623Z,41.97
2023-05-09T04:40:33.667Z,41.76
2023-05-09T04:41:09.086Z,41.63
2023-05-09T04:41:43.947Z,41.90
2023-05-09T04:42:16.139Z,41.77
2023-05-09T04:42:50.991Z,41.85
2023-05-09T04:43:28.128Z,41.70
2023-05-09T04:44:00.440Z,41.80
2023-05-09T04:44:36.053Z,41.97
2023-05-09T04:45:11.921Z,41.66
2023-05-09T04:45:48.131Z,41.84
2023-05-09T04:46:23.626Z,41.89
2023-05-09T04:46:58.282Z,41.77
2023-05-09T04:47:33.152Z,41.88
2023-05-09T04:48:08.109Z,41.42
2023-05-09T04:48:40.581Z,41.67
2023-05-09T04:49:15.368Z,41.40
2023-05-09T04:49:47.560Z,41.39
2023-05-09T04:50:20.130Z,41.31
2023-05-09T04:50:54.866Z,41.07
2023-05-09T04:51:27.073Z,41.15
2023-05-09T04:51:59.213Z,40.56
2023-05-09T04:52:31.476Z,40.32
2023-05-09T04:53:08.597Z,40.62
2023-05-09T04:53:41.236Z,40.55
2023-05-09T04:54:13.458Z,39.96
2023-05-09T04:54:49.182Z,39.85
2023-05-09T04:55:24.113Z,40.40
2023-05-09T04:55:57.006Z,40.06
2023-05-09T04:56:32.215Z,40.23
2023-05-09T04:57:17.463Z,40.57
2023-05-09T04:57:54.849Z,40.78
2023-05-09T04:58:27.244Z,40.58
2023-05-09T04:59:01.718Z,40.59
2023-05-09T04:59:37.537Z,40.09
2023-05-09T05:00:12.699Z,39.60
2023-05-09T05:00:45.722Z,39.90
2023-05-09T05:01:20.658Z,39.31
2023-05-09T05:01:52.867Z,39.79
2023-05-09T05:02:26.848Z,39.81
2023-05-09T05:03:02.224Z,39.95
2023-05-09T05:03:38.381Z,40.61
2023-05-09T05:04:11.584Z,40.13
2023-05-09T05:04:46.378Z,40.50
2023-05-09T05:05:24.706Z,40.53
2023-05-09T05:05:58.317Z,40.29
2023-05-09T05:06:33.267Z,40.32
2023-05-09T05:07:05.937Z,39.88
2023-05-09T05:07:38.225Z,39.88
2023-05-09T05:08:13.579Z,39.66
2023-05-09T05:08:47.107Z,39.78
2023-05-09T05:09:19.966Z,39.91
2023-05-09T05:09:54.968Z,39.51
2023-05-09T05:10:27.721Z,39.80
2023-05-09T05:11:07.678Z,39.24
2023-05-09T05:11:53.228Z,39.56
2023-05-09T05:12:31.181Z,39.26
2023-05-09T05:13:06.625Z,39.24
2023-05-09T05:13:40.366Z,38.80
2023-05-09T05:14:12.921Z,38.88
2023-05-09T05:14:47.690Z,39.04
2023-05-09T05:15:23.892Z,38.95
2023-05-09T05:15:56.697Z,39.06
2023-05-09T05:16:31.508Z,38.57
2023-05-09T05:17:03.759Z,38.58
2023-05-09T05:17:36.376Z,38.71
2023-05-09T05:18:12.994Z,38.56
2023-05-09T05:18:48.221Z,38.38
2023-05-09T05:19:23.213Z,38.48
2023-05-09T05:19:56.302Z,38.04
2023-05-09T05:20:28.750Z,38.38
2023-05-09T05:21:03.793Z,38.04
2023-05-09T05:21:35.950Z,38.25
2023-05-09T05:22:08.199Z,38.11
2023-05-09T05:22:45.334Z,38.25
2023-05-09T05:23:18.499Z,37.90
2023-05-09T05:23:50.845Z,37.88
2023-05-09T05:24:25.580Z,37.80
2023-05-09T05:24:58.485Z,37.90
2023-05-09T05:25:33.631Z,37.68
2023-05-09T05:26:06.791Z,37.75
2023-05-09T05:26:40.551Z,37.92
2023-05-09T05:27:15.409Z,37.91
2023-05-09T05:27:47.644Z,37.63
2023-05-09T05:28:19.962Z,37.33
2023-05-09T05:28:55.663Z,37.33
2023-05-09T05:29:28.132Z,37.13
2023-05-09T05:30:00.659Z,37.52
2023-05-09T05:30:35.449Z,37.61
2023-05-09T05:31:08.100Z,37.23
2023-05-09T05:31:40.268Z,37.30
2023-05-09T05:32:15.428Z,36.80
2023-05-09T05:32:47.716Z,36.76
2023-05-09T05:33:22.862Z,36.64
2023-05-09T05:34:00.774Z,36.89
2023-05-09T05:34:33.198Z,36.51
2023-05-09T05:35:06.542Z,36.43
2023-05-09T05:35:43.923Z,36.67
2023-05-09T05:36:16.214Z,37.17
2023-05-09T05:36:50.950Z,37.56
2023-05-09T05:37:23.194Z,36.89
2023-05-09T05:37:55.666Z,36.28
2023-05-09T05:38:30.867Z,36.42
2023-05-09T05:39:04.688Z,36.52
2023-05-09T05:39:37.111Z,36.33
2023-05-09T05:40:12.965Z,36.61
2023-05-09T05:40:48.565Z,36.67
2023-05-09T05:41:21.059Z,36.34
2023-05-09T05:41:57.046Z,36.29
2023-05-09T05:42:29.265Z,36.72
2023-05-09T05:43:04.080Z,36.46
2023-05-09T05:43:38.506Z,36.20
2023-05-09T05:44:11.284Z,35.89
2023-05-09T05:44:46.498Z,36.14
2023-05-09T05:45:19.070Z,36.39
2023-05-09T05:45:55.983Z,35.85
2023-05-09T05:46:32.147Z,35.77
2023-05-09T05:47:04.625Z,35.59
2023-05-09T05:47:37.769Z,35.58
2023-05-09T05:48:12.832Z,35.90
2023-05-09T05:48:45.025Z,35.86
2023-05-09T05:49:19.859Z,35.92
2023-05-09T05:49:54.587Z,35.78
2023-05-09T05:50:26.862Z,35.96
2023-05-09T05:50:59.250Z,35.70
2023-05-09T05:51:37.561Z,35.27
2023-05-09T05:52:11.363Z,35.30
2023-05-09T05:52:43.885Z,35.56
2023-05-09T05:53:21.582Z,35.34
2023-05-09T05:53:55.503Z,35.15
2023-05-09T05:54:30.795Z,35.10
2023-05-09T05:55:03.550Z,35.04
2023-05-09T05:55:35.763Z,35.03
2023-05-09T05:56:11.038Z,35.02
2023-05-09T05:56:43.383Z,35.10
2023-05-09T05:57:16.182Z,34.98
2023-05-09T05:57:51.444Z,34.82
2023-05-09T05:58:24.737Z,34.76
2023-05-09T05:58:57.298Z,34.73
2023-05-09T05:59:32.049Z,34.95
2023-05-09T06:00:06.671Z,35.22
2023-05-09T06:00:46.148Z,34.79
2023-05-09T06:01:21.557Z,34.87
2023-05-09T06:01:53.797Z,34.82
2023-05-09T06:02:29.528Z,34.65
2023-05-09T06:03:01.757Z,34.89
2023-05-09T06:03:43.461Z,34.42
2023-05-09T06:04:15.807Z,34.36
2023-05-09T06:04:55.863Z,34.11
2023-05-09T06:05:28.409Z,33.93
2023-05-09T06:06:00.745Z,34.46
2023-05-09T06:06:35.615Z,34.22
2023-05-09T06:07:07.975Z,34.98
2023-05-09T06:07:41.260Z,34.24
2023-05-09T06:08:17.026Z,34.29
2023-05-09T06:08:50.176Z,34.49
2023-05-09T06:09:22.444Z,34.34
2023-05-09T06:09:58.039Z,34.15
2023-05-09T06:10:30.232Z,34.35
2023-05-09T06:11:02.613Z,34.07
2023-05-09T06:11:37.651Z,34.38
2023-05-09T06:12:09.917Z,34.38
2023-05-09T06:12:42.218Z,34.29
2023-05-09T06:13:17.197Z,34.30
2023-05-09T06:13:54.069Z,34.34
2023-05-09T06:14:26.322Z,34.34
2023-05-09T06:15:01.670Z,33.95
2023-05-09T06:15:34.005Z,34.47
2023-05-09T06:16:45.144Z,34.14
2023-05-09T06:17:18.038Z,34.60
2023-05-09T06:17:53.028Z,34.36
2023-05-09T06:18:25.279Z,34.55
2023-05-09T06:19:00.029Z,34.05
2023-05-09T06:19:32.161Z,33.81
2023-05-09T06:20:08.134Z,33.96
2023-05-09T06:20:42.988Z,33.83
2023-05-09T06:21:15.222Z,33.60
2023-05-09T06:21:49.984Z,33.63
2023-05-09T06:22:22.173Z,33.87
2023-05-09T06:22:54.396Z,34.09
2023-05-09T06:23:29.257Z,34.12
2023-05-09T06:24:09.724Z,33.83
2023-05-09T06:24:46.818Z,33.35
2023-05-09T06:25:19.152Z,33.74
2023-05-09T06:25:51.274Z,33.95
2023-05-09T06:26:26.423Z,34.18
2023-05-09T06:26:58.776Z,33.96
2023-05-09T06:27:31.076Z,34.10
2023-05-09T06:28:06.213Z,34.02
2023-05-09T06:28:38.923Z,34.09
2023-05-09T06:29:15.365Z,34.29
2023-05-09T06:29:47.531Z,34.05
2023-05-09T06:30:26.295Z,33.99
2023-05-09T06:30:59.340Z,33.64
2023-05-09T06:31:36.055Z,33.90
2023-05-09T06:32:08.313Z,33.82
2023-05-09T06:32:40.614Z,33.95
2023-05-09T06:33:15.414Z,33.40
2023-05-09T06:33:47.639Z,33.64
2023-05-09T06:34:19.848Z,33.06
2023-05-09T06:34:54.687Z,33.10
2023-05-09T06:35:29.408Z,33.54
2023-05-09T06:36:04.196Z,33.65
2023-05-09T06:36:36.359Z,33.62
2023-05-09T06:37:08.514Z,33.03
2023-05-09T06:37:43.331Z,33.40
2023-05-09T06:38:15.521Z,33.11
2023-05-09T06:38:50.295Z,33.10
2023-05-09T06:39:22.435Z,33.38
2023-05-09T06:39:57.799Z,33.16
2023-05-09T06:40:30.027Z,33.41
2023-05-09T06:41:02.233Z,33.49
2023-05-09T06:41:36.979Z,33.70
2023-05-09T06:42:09.782Z,33.40
2023-05-09T06:42:44.537Z,33.57
2023-05-09T06:43:19.391Z,33.56
2023-05-09T06:43:51.621Z,33.41
2023-05-09T06:44:23.780Z,33.55
2023-05-09T06:44:58.570Z,33.82
2023-05-09T06:45:31.044Z,34.08
2023-05-09T06:46:03.403Z,34.80
2023-05-09T06:46:38.228Z,34.15
2023-05-09T06:47:10.937Z,34.21
2023-05-09T06:47:43.175Z,34.08
2023-05-09T06:48:17.874Z,33.74
2023-05-09T06:48:50.165Z,33.53
2023-05-09T06:49:22.336Z,32.94
2023-05-09T06:49:57.048Z,32.75
2023-05-09T06:50:32.876Z,32.94
2023-05-09T06:51:08.443Z,32.44
2023-05-09T06:51:40.811Z,32.36
2023-05-09T06:52:15.865Z,32.28
2023-05-09T06:52:50.721Z,33.27
2023-05-09T06:53:22.905Z,33.32
2023-05-09T06:53:57.613Z,32.95
2023-05-09T06:54:29.856Z,32.65
2023-05-09T06:55:02.095Z,32.43
2023-05-09T06:55:36.955Z,32.68
2023-05-09T06:56:09.179Z,32.51
2023-05-09T06:56:41.544Z,33.12
2023-05-09T06:57:16.448Z,32.82
2023-05-09T06:57:48.645Z,32.17
2023-05-09T06:58:20.920Z,31.87
2023-05-09T06:58:55.892Z,32.63
2023-05-09T06:59:28.136Z,33.15
2023-05-09T07:00:02.996Z,32.33
2023-05-09T07:00:35.197Z,31.82
2023-05-09T07:01:10.176Z,31.11
2023-05-09T07:01:42.581Z,31.25
2023-05-09T07:02:14.808Z,30.93
2023-05-09T07:02:49.625Z,31.12
2023-05-09T07:03:21.765Z,31.07
2023-05-09T07:03:53.913Z,31.03
2023-05-09T07:04:28.723Z,30.83
2023-05-09T07:05:00.945Z,31.39
2023-05-09T07:05:35.962Z,31.42
2023-05-09T07:06:11.614Z,30.53
2023-05-09T07:06:43.770Z,30.81
2023-05-09T07:07:16.484Z,31.08
2023-05-09T07:07:51.382Z,31.25
2023-05-09T07:08:23.598Z,31.25
2023-05-09T07:08:55.899Z,32.13
2023-05-09T07:09:30.820Z,31.68
2023-05-09T07:10:11.246Z,31.27
2023-05-09T07:10:47.003Z,31.38
2023-05-09T07:11:19.327Z,31.18
2023-05-09T07:11:51.486Z,30.29
2023-05-09T07:12:26.195Z,30.59
2023-05-09T07:12:58.720Z,31.23
2023-05-09T07:13:33.500Z,31.20
2023-05-09T07:14:05.865Z,30.67
2023-05-09T07:14:38.384Z,30.54
2023-05-09T07:15:14.661Z,31.50
2023-05-09T07:15:50.799Z,31.81
2023-05-09T07:16:25.782Z,31.69
2023-05-09T07:17:09.936Z,31.23
2023-05-09T07:17:52.913Z,31.88
2023-05-09T07:18:25.118Z,31.13
2023-05-09T07:18:57.284Z,30.63
2023-05-09T07:19:32.050Z,30.24
2023-05-09T07:20:05.108Z,29.62
2023-05-09T07:20:42.443Z,29.41
2023-05-09T07:21:14.648Z,30.40
2023-05-09T07:21:46.801Z,30.10
2023-05-09T07:22:21.827Z,29.93
2023-05-09T07:22:54.002Z,29.97
2023-05-09T07:23:28.920Z,30.27
2023-05-09T07:24:01.126Z,29.92
2023-05-09T07:24:35.871Z,29.71
2023-05-09T07:25:09.330Z,29.43
2023-05-09T07:25:44.109Z,29.79
2023-05-09T07:26:16.359Z,29.03
2023-05-09T07:26:51.115Z,30.20
2023-05-09T07:27:23.335Z,30.60